Bernissart, Belgium
Current Conditions -  °F | °C
As of 10:18 AM on Wednesday 28 Jan 2015 (Local Time) from EBCV Reporting Station
Broken Clouds Broken Clouds  
Wind Chill: 34°   Ceiling: 2600
Heat Index: 43°   Visibility: 6mi
Dew Point: 39°   Wind: 22mph
Humidity: 87%   Direction: 210°SSW
Pressure: 29.91"   Gusts: NA
Location:  50.47°N, 3.65°E
Report Text: EBCV 280918Z AUTO 21019KT 9999 FEW011/// SCT014/// BKN026/// 06/04 Q1013 GRN
Loading
Personal Weather Stations






























Interactive Weather Map New forecast layout! Learn more

10-Day Weather Forecast

Advertisements
Track Severe Weather on mobile